createdAt,value
2022-10-05T00:00:04.374Z,99666.06
2022-10-05T00:02:32.105Z,99668.53
2022-10-05T00:04:59.359Z,99672.00
2022-10-05T00:07:26.020Z,99662.47
2022-10-05T00:10:00.037Z,99671.09
2022-10-05T00:12:29.876Z,99665.00
2022-10-05T00:15:00.577Z,99678.72
2022-10-05T00:17:30.258Z,99685.50
2022-10-05T00:19:57.044Z,99680.16
2022-10-05T00:22:34.045Z,99687.09
2022-10-05T00:25:03.063Z,99698.28
2022-10-05T00:27:36.718Z,99691.28
2022-10-05T00:30:24.171Z,99700.69
2022-10-05T00:32:53.897Z,99697.34
2022-10-05T00:35:23.996Z,99707.56
2022-10-05T00:37:55.584Z,99707.41
2022-10-05T00:40:40.328Z,99712.53
2022-10-05T00:43:39.163Z,99714.25
2022-10-05T00:46:13.353Z,99705.59
2022-10-05T00:48:57.251Z,99720.94
2022-10-05T00:51:36.578Z,99724.28
2022-10-05T00:54:17.373Z,99722.50
2022-10-05T00:57:04.814Z,99729.22
2022-10-05T00:59:40.561Z,99736.09
2022-10-05T01:02:15.469Z,99743.66
2022-10-05T01:04:50.405Z,99753.81
2022-10-05T01:07:38.569Z,99762.19
2022-10-05T01:10:23.592Z,99750.22
2022-10-05T01:13:08.198Z,99764.72
2022-10-05T01:15:47.077Z,99770.47
2022-10-05T01:18:16.629Z,99764.50
2022-10-05T01:20:48.473Z,99775.50
2022-10-05T01:23:58.118Z,99770.38
2022-10-05T01:26:40.207Z,99781.47
2022-10-05T01:29:15.958Z,99777.16
2022-10-05T01:31:57.725Z,99789.00
2022-10-05T01:34:48.269Z,99788.09
2022-10-05T01:37:34.714Z,99793.13
2022-10-05T01:40:09.177Z,99792.22
2022-10-05T01:42:59.760Z,99800.66
2022-10-05T01:45:46.605Z,99806.50
2022-10-05T01:48:23.509Z,99810.84
2022-10-05T01:51:11.176Z,99806.47
2022-10-05T01:53:57.075Z,99823.75
2022-10-05T01:57:00.831Z,99824.47
2022-10-05T01:59:49.126Z,99825.28
2022-10-05T02:02:22.110Z,99827.59
2022-10-05T02:05:02.382Z,99842.38
2022-10-05T02:07:54.282Z,99835.44
2022-10-05T02:10:28.932Z,99844.97
2022-10-05T02:13:17.232Z,99845.06
2022-10-05T02:15:58.739Z,99847.66
2022-10-05T02:18:37.995Z,99848.44
2022-10-05T02:21:05.590Z,99853.78
2022-10-05T02:23:35.923Z,99853.84
2022-10-05T02:26:04.641Z,99858.19
2022-10-05T02:28:55.904Z,99864.03
2022-10-05T02:31:57.525Z,99859.16
2022-10-05T02:34:52.234Z,99864.44
2022-10-05T02:37:43.484Z,99854.25
2022-10-05T02:40:49.641Z,99852.59
2022-10-05T02:43:19.086Z,99850.09
2022-10-05T02:46:22.834Z,99852.59
2022-10-05T02:49:13.745Z,99855.22
2022-10-05T02:52:05.712Z,99845.84
2022-10-05T02:54:53.657Z,99856.94
2022-10-05T02:57:34.445Z,99862.13
2022-10-05T03:00:15.269Z,99860.41
2022-10-05T03:02:48.462Z,99868.09
2022-10-05T03:05:30.866Z,99865.53
2022-10-05T03:08:09.181Z,99878.34
2022-10-05T03:10:56.835Z,99880.88
2022-10-05T03:13:48.760Z,99886.81
2022-10-05T03:16:37.230Z,99883.47
2022-10-05T03:19:41.157Z,99891.19
2022-10-05T03:22:55.945Z,99891.19
2022-10-05T03:25:47.508Z,99889.53
2022-10-05T03:28:20.435Z,99900.66
2022-10-05T03:30:59.582Z,99903.97
2022-10-05T03:33:31.033Z,99910.75
2022-10-05T03:36:06.336Z,99903.09
2022-10-05T03:38:50.311Z,99896.28
2022-10-05T03:41:34.837Z,99905.66
2022-10-05T03:44:30.946Z,99903.09
2022-10-05T03:47:34.662Z,99909.91
2022-10-05T03:50:34.047Z,99905.56
2022-10-05T03:53:06.194Z,99908.94
2022-10-05T03:55:48.078Z,99908.09
2022-10-05T03:58:28.265Z,99909.78
2022-10-05T04:01:00.679Z,99908.94
2022-10-05T04:03:36.497Z,99913.19
2022-10-05T04:06:22.501Z,99907.16
2022-10-05T04:09:00.547Z,99916.78
2022-10-05T04:11:34.334Z,99915.88
2022-10-05T04:14:15.120Z,99919.28
2022-10-05T04:16:48.044Z,99917.69
2022-10-05T04:19:24.631Z,99917.66
2022-10-05T04:22:15.834Z,99913.19
2022-10-05T04:25:17.498Z,99933.78
2022-10-05T04:28:04.135Z,99938.94
2022-10-05T04:30:33.703Z,99941.50
2022-10-05T04:33:00.704Z,99944.13
2022-10-05T04:36:04.645Z,99954.41
2022-10-05T04:38:52.629Z,99953.72
2022-10-05T04:41:28.374Z,99961.38
2022-10-05T04:44:13.658Z,99958.84
2022-10-05T04:46:43.265Z,99969.13
2022-10-05T04:49:28.123Z,99974.31
2022-10-05T04:52:19.164Z,99976.03
2022-10-05T04:54:51.577Z,99992.34
2022-10-05T04:57:25.576Z,99990.44
2022-10-05T04:59:54.859Z,100001.66
2022-10-05T05:02:36.711Z,100003.47
2022-10-05T05:05:35.386Z,100006.94
2022-10-05T05:08:26.015Z,99999.22
2022-10-05T05:11:24.514Z,100006.94
2022-10-05T05:14:16.107Z,100006.16
2022-10-05T05:16:56.650Z,100016.44
2022-10-05T05:19:37.769Z,99999.47
2022-10-05T05:22:07.466Z,100003.78
2022-10-05T05:24:52.444Z,100013.22
2022-10-05T05:27:58.319Z,100010.72
2022-10-05T05:30:33.750Z,100008.16
2022-10-05T05:33:18.281Z,100013.50
2022-10-05T05:36:03.636Z,100024.75
2022-10-05T05:39:11.577Z,100014.47
2022-10-05T05:41:43.327Z,100024.81
2022-10-05T05:44:18.728Z,100024.94
2022-10-05T05:47:03.965Z,100021.69
2022-10-05T05:49:53.201Z,100032.13
2022-10-05T05:52:30.462Z,100032.19
2022-10-05T05:55:01.992Z,100028.72
2022-10-05T05:57:39.959Z,100036.50
2022-10-05T06:00:35.784Z,100045.97
2022-10-05T06:03:11.428Z,100039.81
2022-10-05T06:05:46.937Z,100044.22
2022-10-05T06:08:22.497Z,100043.50
2022-10-05T06:11:21.659Z,100045.22
2022-10-05T06:13:49.274Z,100059.09
2022-10-05T06:16:25.642Z,100056.63
2022-10-05T06:19:27.135Z,100059.19
2022-10-05T06:22:02.660Z,100072.13
2022-10-05T06:24:29.156Z,100073.94
2022-10-05T06:27:20.285Z,100074.91
2022-10-05T06:29:49.784Z,100070.66
2022-10-05T06:32:24.585Z,100076.72
2022-10-05T06:34:58.285Z,100079.44
2022-10-05T06:37:34.056Z,100066.69
2022-10-05T06:40:09.395Z,100077.88
2022-10-05T06:43:14.904Z,100068.50
2022-10-05T06:45:56.897Z,100080.69
2022-10-05T06:48:47.630Z,100079.81
2022-10-05T06:51:29.181Z,100081.63
2022-10-05T06:54:07.762Z,100084.22
2022-10-05T06:56:49.803Z,100078.19
2022-10-05T06:59:31.611Z,100083.69
2022-10-05T07:02:24.530Z,100081.19
2022-10-05T07:05:12.543Z,100086.53
2022-10-05T07:07:47.512Z,100084.94
2022-10-05T07:10:22.484Z,100084.13
2022-10-05T07:13:13.587Z,100099.66
2022-10-05T07:15:42.645Z,100102.31
2022-10-05T07:18:09.112Z,100102.41
2022-10-05T07:20:58.831Z,100113.63
2022-10-05T07:23:28.422Z,100112.78
2022-10-05T07:26:26.776Z,100112.97
2022-10-05T07:29:18.201Z,100119.25
2022-10-05T07:32:14.446Z,100133.00
2022-10-05T07:35:38.358Z,100142.41
2022-10-05T07:38:18.627Z,100126.94
2022-10-05T07:40:59.328Z,100134.56
2022-10-05T07:44:01.976Z,100138.97
2022-10-05T07:46:29.484Z,100140.72
2022-10-05T07:49:05.576Z,100137.41
2022-10-05T07:51:41.255Z,100144.22
2022-10-05T07:54:17.031Z,100137.47
2022-10-05T07:56:52.381Z,100130.63
2022-10-05T07:59:39.419Z,100112.47
2022-10-05T08:02:13.117Z,100120.94
2022-10-05T08:05:12.039Z,100129.56
2022-10-05T08:07:40.218Z,100113.13
2022-10-05T08:10:27.682Z,100131.97
2022-10-05T08:13:21.944Z,100125.22
2022-10-05T08:15:53.895Z,100134.72
2022-10-05T08:18:57.168Z,100140.72
2022-10-05T08:21:31.237Z,100141.69
2022-10-05T08:24:25.479Z,100144.34
2022-10-05T08:27:02.065Z,100147.84
2022-10-05T08:29:35.277Z,100144.75
2022-10-05T08:32:05.523Z,100142.19
2022-10-05T08:34:43.942Z,100153.47
2022-10-05T08:37:32.252Z,100163.03
2022-10-05T08:40:30.989Z,100162.28
2022-10-05T08:42:57.515Z,100173.47
2022-10-05T08:46:04.629Z,100161.41
2022-10-05T08:48:42.469Z,100180.50
2022-10-05T08:51:26.179Z,100183.97
2022-10-05T08:54:23.929Z,100192.69
2022-10-05T08:57:21.372Z,100186.78
2022-10-05T09:00:17.423Z,100180.72
2022-10-05T09:03:14.613Z,100176.50
2022-10-05T09:05:59.783Z,100176.50
2022-10-05T09:08:51.532Z,100171.44
2022-10-05T09:11:18.067Z,100172.44
2022-10-05T09:14:21.060Z,100159.72
2022-10-05T09:17:07.016Z,100151.31
2022-10-05T09:20:17.948Z,100154.88
2022-10-05T09:22:59.563Z,100176.44
2022-10-05T09:25:30.895Z,100169.63
2022-10-05T09:28:17.917Z,100164.28
2022-10-05T09:31:08.893Z,100172.28
2022-10-05T09:34:01.378Z,100171.47
2022-10-05T09:36:47.842Z,100173.16
2022-10-05T09:39:28.765Z,100176.50
2022-10-05T09:42:45.756Z,100177.44
2022-10-05T09:45:44.031Z,100171.59
2022-10-05T09:48:36.149Z,100170.13
2022-10-05T09:51:32.764Z,100154.06
2022-10-05T09:54:05.299Z,100168.13
2022-10-05T09:56:53.120Z,100168.22
2022-10-05T09:59:47.067Z,100168.41
2022-10-05T10:02:44.277Z,100173.63
2022-10-05T10:05:22.801Z,100169.38
2022-10-05T10:08:01.272Z,100176.41
2022-10-05T10:10:40.171Z,100166.38
2022-10-05T10:13:39.188Z,100167.47
2022-10-05T10:16:33.023Z,100181.31
2022-10-05T10:19:30.610Z,100176.44
2022-10-05T10:22:05.483Z,100152.50
2022-10-05T10:24:35.440Z,100168.22
2022-10-05T10:27:12.682Z,100161.09
2022-10-05T10:30:03.487Z,100171.56
2022-10-05T10:32:41.833Z,100169.91
2022-10-05T10:35:35.798Z,100178.59
2022-10-05T10:38:31.018Z,100178.56
2022-10-05T10:41:16.436Z,100178.56
2022-10-05T10:44:02.229Z,100179.50
2022-10-05T10:46:57.287Z,100174.25
2022-10-05T10:49:51.872Z,100181.88
2022-10-05T10:52:41.654Z,100186.28
2022-10-05T10:55:21.376Z,100190.53
2022-10-05T10:57:48.008Z,100181.06
2022-10-05T11:00:39.235Z,100193.16
2022-10-05T11:03:35.053Z,100193.13
2022-10-05T11:06:33.054Z,100197.34
2022-10-05T11:09:33.174Z,100187.72
2022-10-05T11:12:22.709Z,100185.97
2022-10-05T11:15:12.188Z,100176.50
2022-10-05T11:17:59.683Z,100176.50
2022-10-05T11:20:50.668Z,100177.31
2022-10-05T11:23:23.119Z,100186.84
2022-10-05T11:25:55.643Z,100188.53
2022-10-05T11:28:44.105Z,100170.38
2022-10-05T11:31:48.625Z,100172.09
2022-10-05T11:34:38.211Z,100180.69
2022-10-05T11:37:26.218Z,100169.56
2022-10-05T11:40:14.346Z,100173.88
2022-10-05T11:42:44.168Z,100179.88
2022-10-05T11:45:21.979Z,100179.03
2022-10-05T11:48:16.289Z,100189.38
2022-10-05T11:50:51.634Z,100190.25
2022-10-05T11:53:57.634Z,100197.97
2022-10-05T11:56:33.775Z,100185.03
2022-10-05T11:59:21.768Z,100198.88
2022-10-05T12:01:51.122Z,100198.84
2022-10-05T12:04:32.673Z,100194.34
2022-10-05T12:07:15.464Z,100203.78
2022-10-05T12:10:16.879Z,100207.09
2022-10-05T12:12:45.217Z,100212.97
2022-10-05T12:15:28.618Z,100214.66
2022-10-05T12:18:24.444Z,100225.78
2022-10-05T12:21:13.284Z,100224.88
2022-10-05T12:23:46.682Z,100227.44
2022-10-05T12:26:24.538Z,100216.16
2022-10-05T12:29:01.185Z,100229.97
2022-10-05T12:31:36.423Z,100227.44
2022-10-05T12:34:14.746Z,100242.97
2022-10-05T12:37:08.529Z,100241.31
2022-10-05T12:39:40.812Z,100241.38
2022-10-05T12:42:16.902Z,100235.44
2022-10-05T12:45:09.529Z,100236.28
2022-10-05T12:48:14.093Z,100226.06
2022-10-05T12:51:15.132Z,100231.38
2022-10-05T12:54:10.554Z,100231.50
2022-10-05T12:56:49.968Z,100230.75
2022-10-05T12:59:28.803Z,100224.78
2022-10-05T13:02:19.603Z,100231.69
2022-10-05T13:04:49.179Z,100230.00
2022-10-05T13:07:30.433Z,100231.69
2022-10-05T13:10:18.680Z,100223.06
2022-10-05T13:12:51.567Z,100225.63
2022-10-05T13:15:37.685Z,100228.16
2022-10-05T13:18:16.030Z,100229.03
2022-10-05T13:20:51.681Z,100218.78
2022-10-05T13:23:36.856Z,100215.31
2022-10-05T13:26:14.793Z,100222.13
2022-10-05T13:28:56.863Z,100231.63
2022-10-05T13:31:39.034Z,100226.41
2022-10-05T13:34:21.239Z,100228.97
2022-10-05T13:36:59.496Z,100222.88
2022-10-05T13:40:04.719Z,100234.00
2022-10-05T13:42:42.134Z,100225.25
2022-10-05T13:45:20.318Z,100240.72
2022-10-05T13:48:05.391Z,100238.94
2022-10-05T13:51:01.939Z,100226.00
2022-10-05T13:53:44.217Z,100238.03
2022-10-05T13:56:36.769Z,100240.53
2022-10-05T13:59:15.744Z,100234.50
2022-10-05T14:01:59.322Z,100235.31
2022-10-05T14:04:42.263Z,100236.22
2022-10-05T14:07:31.550Z,100224.13
2022-10-05T14:10:02.085Z,100222.50
2022-10-05T14:12:28.926Z,100222.50
2022-10-05T14:14:57.718Z,100218.13
2022-10-05T14:17:33.443Z,100227.72
2022-10-05T14:20:00.809Z,100227.72
2022-10-05T14:22:27.513Z,100222.50
2022-10-05T14:25:07.955Z,100231.94
2022-10-05T14:27:48.343Z,100233.72
2022-10-05T14:30:14.877Z,100228.56
2022-10-05T14:32:56.237Z,100223.34
2022-10-05T14:35:25.991Z,100213.91
2022-10-05T14:37:58.345Z,100210.47
2022-10-05T14:40:27.776Z,100203.66
2022-10-05T14:42:54.915Z,100193.22
2022-10-05T14:45:24.993Z,100203.59
2022-10-05T14:48:06.119Z,100200.09
2022-10-05T14:50:32.817Z,100187.97
2022-10-05T14:53:11.449Z,100197.47
2022-10-05T14:55:50.414Z,100194.88
2022-10-05T14:58:41.465Z,100216.22
2022-10-05T15:01:26.390Z,100217.94
2022-10-05T15:04:14.652Z,100214.44
2022-10-05T15:07:11.221Z,100224.69
2022-10-05T15:09:47.248Z,100218.59
2022-10-05T15:12:22.378Z,100227.91
2022-10-05T15:14:51.576Z,100217.44
2022-10-05T15:17:26.211Z,100227.00
2022-10-05T15:20:05.190Z,100233.84
2022-10-05T15:22:48.815Z,100233.84
2022-10-05T15:25:23.126Z,100232.03
2022-10-05T15:28:05.901Z,100225.06
2022-10-05T15:30:38.165Z,100217.09
2022-10-05T15:33:14.397Z,100223.97
2022-10-05T15:36:04.322Z,100237.56
2022-10-05T15:38:41.906Z,100233.19
2022-10-05T15:41:16.642Z,100233.19
2022-10-05T15:43:50.440Z,100240.03
2022-10-05T15:46:19.822Z,100234.88
2022-10-05T15:49:21.248Z,100233.97
2022-10-05T15:52:05.672Z,100228.81
2022-10-05T15:54:43.950Z,100233.94
2022-10-05T15:57:52.146Z,100221.78
2022-10-05T16:00:22.074Z,100230.44
2022-10-05T16:03:00.557Z,100243.34
2022-10-05T16:06:08.846Z,100248.47
2022-10-05T16:09:07.073Z,100249.31
2022-10-05T16:12:01.507Z,100249.25
2022-10-05T16:14:54.577Z,100252.59
2022-10-05T16:17:47.968Z,100243.13
2022-10-05T16:20:20.827Z,100248.31
2022-10-05T16:22:59.714Z,100249.97
2022-10-05T16:25:34.237Z,100250.78
2022-10-05T16:28:16.741Z,100249.00
2022-10-05T16:30:58.752Z,100245.41
2022-10-05T16:33:54.276Z,100257.44
2022-10-05T16:36:48.109Z,100255.69
2022-10-05T16:39:23.455Z,100253.91
2022-10-05T16:42:04.065Z,100253.06
2022-10-05T16:44:33.178Z,100241.88
2022-10-05T16:47:08.742Z,100239.34
2022-10-05T16:49:56.780Z,100242.78
2022-10-05T16:52:26.495Z,100231.50
2022-10-05T16:54:57.825Z,100240.09
2022-10-05T16:57:29.783Z,100239.25
2022-10-05T16:59:56.471Z,100240.91
2022-10-05T17:02:41.548Z,100247.72
2022-10-05T17:05:31.038Z,100255.44
2022-10-05T17:08:34.125Z,100262.19
2022-10-05T17:11:17.041Z,100257.72
2022-10-05T17:14:02.420Z,100268.88
2022-10-05T17:16:54.948Z,100268.09
2022-10-05T17:19:37.279Z,100281.72
2022-10-05T17:22:20.401Z,100278.28
2022-10-05T17:25:18.391Z,100269.66
2022-10-05T17:28:15.012Z,100270.56
2022-10-05T17:31:09.534Z,100271.44
2022-10-05T17:34:10.951Z,100261.94
2022-10-05T17:36:42.888Z,100266.19
2022-10-05T17:39:18.122Z,100268.63
2022-10-05T17:41:45.520Z,100272.88
2022-10-05T17:44:19.435Z,100274.59
2022-10-05T17:46:57.754Z,100278.88
2022-10-05T17:50:08.466Z,100275.38
2022-10-05T17:52:56.798Z,100269.19
2022-10-05T17:56:03.488Z,100269.28
2022-10-05T17:58:30.034Z,100259.88
2022-10-05T18:01:00.672Z,100265.94
2022-10-05T18:03:45.189Z,100270.16
2022-10-05T18:06:30.975Z,100268.38
2022-10-05T18:09:21.057Z,100273.47
2022-10-05T18:12:24.284Z,100271.69
2022-10-05T18:14:50.780Z,100275.97
2022-10-05T18:17:45.292Z,100280.16
2022-10-05T18:20:21.925Z,100273.16
2022-10-05T18:22:51.015Z,100272.28
2022-10-05T18:25:33.882Z,100274.84
2022-10-05T18:28:09.218Z,100274.03
2022-10-05T18:31:01.216Z,100271.41
2022-10-05T18:33:52.700Z,100261.94
2022-10-05T18:36:37.950Z,100268.81
2022-10-05T18:39:26.757Z,100274.81
2022-10-05T18:42:32.375Z,100273.88
2022-10-05T18:45:21.534Z,100270.34
2022-10-05T18:48:00.155Z,100263.41
2022-10-05T18:50:34.601Z,100252.19
2022-10-05T18:53:09.209Z,100247.91
2022-10-05T18:55:41.953Z,100251.31
2022-10-05T18:58:17.800Z,100241.81
2022-10-05T19:00:48.305Z,100256.44
2022-10-05T19:03:39.887Z,100266.63
2022-10-05T19:06:24.934Z,100265.66
2022-10-05T19:09:17.253Z,100262.28
2022-10-05T19:12:00.629Z,100260.56
2022-10-05T19:14:33.193Z,100266.56
2022-10-05T19:17:05.769Z,100265.66
2022-10-05T19:19:38.346Z,100259.63
2022-10-05T19:22:07.994Z,100246.84
2022-10-05T19:24:43.492Z,100247.69
2022-10-05T19:27:50.749Z,100246.03
2022-10-05T19:30:25.245Z,100258.00
2022-10-05T19:32:58.015Z,100262.19
2022-10-05T19:35:45.878Z,100256.16
2022-10-05T19:38:24.239Z,100269.09
2022-10-05T19:41:16.253Z,100278.50
2022-10-05T19:44:01.087Z,100281.94
2022-10-05T19:46:46.484Z,100293.00
2022-10-05T19:49:35.869Z,100291.28
2022-10-05T19:52:08.723Z,100302.38
2022-10-05T19:54:35.271Z,100299.00
2022-10-05T19:57:16.968Z,100287.03
2022-10-05T19:59:47.840Z,100293.88
2022-10-05T20:02:17.039Z,100279.25
2022-10-05T20:04:46.905Z,100279.41
2022-10-05T20:07:21.619Z,100280.31
2022-10-05T20:09:50.203Z,100272.47
2022-10-05T20:12:16.727Z,100269.78
2022-10-05T20:15:01.945Z,100250.94
2022-10-05T20:17:48.749Z,100252.75
2022-10-05T20:20:47.249Z,100256.06
2022-10-05T20:23:30.373Z,100245.78
2022-10-05T20:26:29.302Z,100245.78
2022-10-05T20:28:55.850Z,100242.34
2022-10-05T20:31:22.520Z,100229.53
2022-10-05T20:33:49.150Z,100232.03
2022-10-05T20:36:15.712Z,100236.31
2022-10-05T20:38:42.736Z,100227.72
2022-10-05T20:41:09.463Z,100239.72
2022-10-05T20:43:38.935Z,100230.28
2022-10-05T20:46:06.315Z,100232.78
2022-10-05T20:48:33.054Z,100244.03
2022-10-05T20:51:00.246Z,100250.75
2022-10-05T20:53:26.772Z,100250.84
2022-10-05T20:55:53.352Z,100242.28
2022-10-05T20:58:19.888Z,100240.41
2022-10-05T21:01:05.135Z,100237.84
2022-10-05T21:03:31.744Z,100247.31
2022-10-05T21:05:58.519Z,100246.34
2022-10-05T21:08:25.389Z,100239.44
2022-10-05T21:10:52.177Z,100237.69
2022-10-05T21:13:18.711Z,100252.28
2022-10-05T21:15:45.322Z,100260.16
2022-10-05T21:18:11.860Z,100241.22
2022-10-05T21:20:38.466Z,100248.09
2022-10-05T21:23:05.027Z,100248.88
2022-10-05T21:25:31.584Z,100257.50
2022-10-05T21:27:58.230Z,100241.97
2022-10-05T21:30:24.943Z,100246.28
2022-10-05T21:32:51.514Z,100234.19
2022-10-05T21:35:18.134Z,100241.06
2022-10-05T21:37:44.695Z,100253.94
2022-10-05T21:40:11.424Z,100240.97
2022-10-05T21:42:38.120Z,100246.00
2022-10-05T21:45:05.155Z,100255.59
2022-10-05T21:47:31.846Z,100245.31
2022-10-05T21:49:59.861Z,100246.06
2022-10-05T21:52:26.573Z,100250.38
2022-10-05T21:54:53.196Z,100253.81
2022-10-05T21:57:19.743Z,100256.34
2022-10-05T21:59:47.093Z,100256.34
2022-10-05T22:02:13.650Z,100238.19
2022-10-05T22:04:40.231Z,100239.16
2022-10-05T22:07:18.459Z,100233.25
2022-10-05T22:09:47.726Z,100240.19
2022-10-05T22:12:14.685Z,100232.31
2022-10-05T22:14:41.572Z,100229.94
2022-10-05T22:17:14.875Z,100229.13
2022-10-05T22:19:41.609Z,100223.19
2022-10-05T22:22:11.824Z,100211.09
2022-10-05T22:24:38.670Z,100192.06
2022-10-05T22:27:05.423Z,100201.66
2022-10-05T22:29:31.984Z,100204.78
2022-10-05T22:31:58.586Z,100204.72
2022-10-05T22:34:25.470Z,100209.84
2022-10-05T22:36:52.066Z,100223.63
2022-10-05T22:39:18.756Z,100223.53
2022-10-05T22:41:45.368Z,100223.59
2022-10-05T22:44:11.948Z,100226.19
2022-10-05T22:46:38.662Z,100221.91
2022-10-05T22:49:05.300Z,100222.00
2022-10-05T22:51:31.842Z,100223.72
2022-10-05T22:53:58.374Z,100223.69
2022-10-05T22:56:25.044Z,100226.28
2022-10-05T22:58:51.608Z,100217.63
2022-10-05T23:01:19.482Z,100230.56
2022-10-05T23:03:46.234Z,100223.72
2022-10-05T23:06:15.964Z,100223.72
2022-10-05T23:08:43.870Z,100227.19
2022-10-05T23:11:16.849Z,100227.19
2022-10-05T23:13:44.051Z,100232.38
2022-10-05T23:16:12.116Z,100228.94
2022-10-05T23:18:39.507Z,100227.91
2022-10-05T23:21:08.367Z,100218.50
2022-10-05T23:23:40.809Z,100214.88
2022-10-05T23:26:08.694Z,100216.69
2022-10-05T23:28:35.502Z,100216.66
2022-10-05T23:31:05.357Z,100216.72
2022-10-05T23:33:32.228Z,100209.72
2022-10-05T23:36:00.861Z,100222.47
2022-10-05T23:38:27.829Z,100220.63
2022-10-05T23:40:54.798Z,100208.44
2022-10-05T23:43:21.908Z,100219.72
2022-10-05T23:45:48.924Z,100220.53
2022-10-05T23:48:15.513Z,100220.44
2022-10-05T23:50:45.402Z,100213.50
2022-10-05T23:53:12.296Z,100211.66
2022-10-05T23:55:38.887Z,100209.94
2022-10-05T23:58:05.464Z,100208.19
